createdAt,value
2018-08-04T00:00:14.728Z,27.40
2018-08-04T00:02:41.696Z,27.40
2018-08-04T00:05:08.661Z,27.40
2018-08-04T00:07:35.862Z,27.40
2018-08-04T00:10:02.705Z,27.40
2018-08-04T00:12:29.788Z,27.40
2018-08-04T00:14:56.881Z,27.40
2018-08-04T00:17:24.187Z,27.40
2018-08-04T00:19:51.077Z,27.40
2018-08-04T00:22:18.128Z,27.40
2018-08-04T00:24:45.083Z,27.40
2018-08-04T00:27:12.325Z,27.40
2018-08-04T00:29:39.271Z,27.40
2018-08-04T00:32:07.951Z,27.40
2018-08-04T00:34:34.808Z,27.30
2018-08-04T00:37:04.196Z,27.40
2018-08-04T00:39:31.101Z,27.30
2018-08-04T00:41:58.057Z,27.30
2018-08-04T00:44:25.031Z,27.40
2018-08-04T00:46:52.493Z,27.40
2018-08-04T00:49:19.431Z,27.40
2018-08-04T00:51:46.992Z,27.40
2018-08-04T00:54:14.039Z,27.40
2018-08-04T00:56:41.292Z,27.30
2018-08-04T00:59:09.569Z,27.40
2018-08-04T01:01:36.479Z,27.40
2018-08-04T01:04:03.355Z,27.30
2018-08-04T01:06:30.364Z,27.30
2018-08-04T01:08:57.381Z,27.30
2018-08-04T01:11:24.289Z,27.30
2018-08-04T01:13:51.190Z,27.30
2018-08-04T01:16:18.077Z,27.30
2018-08-04T01:18:44.962Z,27.30
2018-08-04T01:21:11.945Z,27.30
2018-08-04T01:23:38.830Z,27.30
2018-08-04T01:26:05.753Z,27.30
2018-08-04T01:28:32.712Z,27.30
2018-08-04T01:30:59.747Z,27.30
2018-08-04T01:33:26.779Z,27.30
2018-08-04T01:35:53.738Z,27.30
2018-08-04T01:38:20.784Z,27.30
2018-08-04T01:40:47.652Z,27.30
2018-08-04T01:43:14.527Z,27.30
2018-08-04T01:45:41.523Z,27.30
2018-08-04T01:48:08.664Z,27.30
2018-08-04T01:50:35.575Z,27.30
2018-08-04T01:53:02.658Z,27.30
2018-08-04T01:55:29.603Z,27.30
2018-08-04T01:57:56.602Z,27.30
2018-08-04T02:00:23.595Z,27.30
2018-08-04T02:02:50.510Z,27.30
2018-08-04T02:05:17.564Z,27.30
2018-08-04T02:07:44.532Z,27.30
2018-08-04T02:10:11.439Z,27.30
2018-08-04T02:12:38.339Z,27.30
2018-08-04T02:17:32.767Z,27.30
2018-08-04T02:19:59.620Z,27.30
2018-08-04T02:22:26.814Z,27.30
2018-08-04T02:24:53.706Z,27.30
2018-08-04T02:27:20.719Z,27.30
2018-08-04T02:29:47.620Z,27.30
2018-08-04T02:32:15.212Z,27.20
2018-08-04T02:34:42.151Z,27.30
2018-08-04T02:37:09.188Z,27.30
2018-08-04T02:39:36.126Z,27.30
2018-08-04T02:42:03.016Z,27.20
2018-08-04T02:44:29.864Z,27.30
2018-08-04T02:46:56.809Z,27.30
2018-08-04T02:49:23.750Z,27.30
2018-08-04T02:54:17.838Z,27.30
2018-08-04T02:56:44.825Z,27.30
2018-08-04T02:59:11.705Z,27.20
2018-08-04T03:01:38.651Z,27.20
2018-08-04T03:04:05.488Z,27.30
2018-08-04T03:06:32.538Z,27.30
2018-08-04T03:08:59.463Z,27.20
2018-08-04T03:11:26.438Z,27.20
2018-08-04T03:13:53.420Z,27.20
2018-08-04T03:18:54.121Z,27.20
2018-08-04T03:21:20.958Z,27.20
2018-08-04T03:23:48.069Z,27.20
2018-08-04T03:26:14.956Z,27.20
2018-08-04T03:28:41.900Z,27.20
2018-08-04T03:31:08.838Z,27.20
2018-08-04T03:33:35.738Z,27.20
2018-08-04T03:36:02.624Z,27.00
2018-08-04T03:38:29.571Z,26.10
2018-08-04T03:40:56.408Z,25.70
2018-08-04T03:43:23.261Z,25.40
2018-08-04T03:45:50.097Z,25.20
2018-08-04T03:48:17.176Z,25.20
2018-08-04T03:50:43.990Z,25.10
2018-08-04T03:53:10.827Z,25.00
2018-08-04T03:55:37.675Z,24.90
2018-08-04T03:58:04.668Z,24.80
2018-08-04T04:00:31.522Z,24.80
2018-08-04T04:02:58.402Z,24.70
2018-08-04T04:05:25.215Z,24.60
2018-08-04T04:07:52.232Z,24.60
2018-08-04T04:10:19.072Z,24.50
2018-08-04T04:12:45.938Z,24.50
2018-08-04T04:15:12.754Z,24.60
2018-08-04T04:17:39.610Z,24.50
2018-08-04T04:20:06.438Z,24.50
2018-08-04T04:22:33.306Z,24.50
2018-08-04T04:25:00.136Z,24.40
2018-08-04T04:27:27.242Z,24.40
2018-08-04T04:29:54.071Z,24.40
2018-08-04T04:32:20.891Z,24.30
2018-08-04T04:34:47.757Z,24.30
2018-08-04T04:37:14.754Z,24.30
2018-08-04T04:39:41.622Z,24.30
2018-08-04T04:44:35.624Z,24.30
2018-08-04T04:47:02.536Z,24.30
2018-08-04T04:49:29.401Z,24.30
2018-08-04T04:51:56.264Z,24.30
2018-08-04T04:54:23.120Z,24.10
2018-08-04T04:56:50.171Z,24.10
2018-08-04T04:59:17.007Z,24.20
2018-08-04T05:01:43.852Z,24.20
2018-08-04T05:04:10.771Z,24.40
2018-08-04T05:06:37.687Z,24.50
2018-08-04T05:09:04.539Z,24.40
2018-08-04T05:11:31.386Z,24.30
2018-08-04T05:13:58.211Z,24.30
2018-08-04T05:16:25.035Z,24.50
2018-08-04T05:18:51.872Z,25.00
2018-08-04T05:21:18.705Z,25.40
2018-08-04T05:23:45.676Z,25.60
2018-08-04T05:26:12.540Z,25.80
2018-08-04T05:28:39.390Z,25.90
2018-08-04T05:31:06.288Z,25.90
2018-08-04T05:33:33.165Z,26.00
2018-08-04T05:35:59.983Z,26.10
2018-08-04T05:38:26.854Z,26.10
2018-08-04T05:40:53.752Z,26.20
2018-08-04T05:43:20.671Z,26.30
2018-08-04T05:45:47.439Z,26.30
2018-08-04T05:48:14.430Z,26.20
2018-08-04T05:50:41.277Z,26.10
2018-08-04T05:53:08.122Z,26.10
2018-08-04T05:55:34.962Z,26.00
2018-08-04T05:58:01.864Z,26.00
2018-08-04T06:00:28.635Z,26.00
2018-08-04T06:02:55.468Z,26.00
2018-08-04T06:05:22.337Z,26.00
2018-08-04T06:07:49.213Z,26.00
2018-08-04T06:10:16.066Z,26.10
2018-08-04T06:12:42.961Z,26.10
2018-08-04T06:15:09.862Z,26.10
2018-08-04T06:17:36.766Z,26.10
2018-08-04T06:20:03.584Z,26.20
2018-08-04T06:22:30.519Z,26.20
2018-08-04T06:24:57.393Z,26.20
2018-08-04T06:27:24.394Z,26.20
2018-08-04T06:29:51.259Z,26.30
2018-08-04T06:32:18.721Z,26.30
2018-08-04T06:34:45.903Z,26.40
2018-08-04T06:37:13.028Z,26.40
2018-08-04T06:39:40.290Z,26.50
2018-08-04T06:42:07.230Z,26.50
2018-08-04T06:44:34.256Z,26.50
2018-08-04T06:47:01.552Z,26.60
2018-08-04T06:49:28.553Z,26.60
2018-08-04T06:51:55.571Z,26.60
2018-08-04T06:54:23.135Z,26.60
2018-08-04T06:56:50.565Z,26.60
2018-08-04T06:59:17.610Z,26.70
2018-08-04T07:01:44.755Z,26.60
2018-08-04T07:04:11.832Z,26.60
2018-08-04T07:06:39.367Z,26.70
2018-08-04T07:09:06.391Z,26.70
2018-08-04T07:14:00.573Z,26.70
2018-08-04T07:16:27.713Z,26.70
2018-08-04T07:18:54.802Z,26.80
2018-08-04T07:23:49.204Z,26.80
2018-08-04T07:26:16.211Z,26.80
2018-08-04T07:28:43.273Z,26.80
2018-08-04T07:31:10.346Z,26.90
2018-08-04T07:36:04.953Z,26.80
2018-08-04T07:38:32.184Z,26.90
2018-08-04T07:40:59.516Z,27.00
2018-08-04T07:43:26.559Z,26.90
2018-08-04T07:45:53.556Z,27.00
2018-08-04T07:48:20.813Z,27.00
2018-08-04T07:50:47.899Z,27.00
2018-08-04T07:53:14.912Z,27.10
2018-08-04T07:55:42.013Z,27.20
2018-08-04T07:58:09.193Z,27.20
2018-08-04T08:00:36.247Z,27.30
2018-08-04T08:03:07.693Z,27.20
2018-08-04T08:05:35.019Z,27.30
2018-08-04T08:08:02.254Z,27.20
2018-08-04T08:10:29.625Z,27.30
2018-08-04T08:12:56.883Z,27.20
2018-08-04T08:15:24.163Z,27.30
2018-08-04T08:17:51.513Z,27.30
2018-08-04T08:20:19.282Z,27.30
2018-08-04T08:22:48.781Z,27.30
2018-08-04T08:25:15.930Z,27.30
2018-08-04T08:27:44.513Z,27.30
2018-08-04T08:30:13.117Z,27.30
2018-08-04T08:32:46.686Z,27.30
2018-08-04T08:35:20.498Z,27.30
2018-08-04T08:37:47.686Z,27.30
2018-08-04T08:40:14.887Z,27.30
2018-08-04T08:42:41.909Z,27.30
2018-08-04T08:45:09.007Z,27.40
2018-08-04T08:47:36.301Z,27.30
2018-08-04T08:50:09.435Z,27.30
2018-08-04T08:52:36.663Z,27.30
2018-08-04T08:55:05.921Z,27.40
2018-08-04T08:57:33.176Z,27.40
2018-08-04T09:00:00.128Z,27.40
2018-08-04T09:02:27.134Z,27.40
2018-08-04T09:04:54.089Z,27.40
2018-08-04T09:07:21.408Z,27.50
2018-08-04T09:09:48.410Z,27.40
2018-08-04T09:12:15.560Z,27.40
2018-08-04T09:14:42.709Z,27.40
2018-08-04T09:17:09.965Z,27.40
2018-08-04T09:19:37.079Z,27.40
2018-08-04T09:22:04.020Z,27.40
2018-08-04T09:24:31.106Z,27.50
2018-08-04T09:29:25.575Z,27.50
2018-08-04T09:31:52.623Z,27.40
2018-08-04T09:34:19.876Z,27.50
2018-08-04T09:36:47.162Z,27.50
2018-08-04T09:39:14.341Z,27.50
2018-08-04T09:41:41.386Z,27.50
2018-08-04T09:44:08.472Z,27.50
2018-08-04T09:46:35.519Z,27.50
2018-08-04T09:49:02.676Z,27.50
2018-08-04T09:51:29.758Z,27.50
2018-08-04T09:53:56.803Z,27.50
2018-08-04T09:56:23.912Z,27.50
2018-08-04T09:58:50.870Z,27.50
2018-08-04T10:01:17.804Z,27.50
2018-08-04T10:03:44.746Z,27.60
2018-08-04T10:06:11.737Z,27.60
2018-08-04T10:08:38.739Z,27.50
2018-08-04T10:13:33.039Z,27.50
2018-08-04T10:16:00.132Z,27.60
2018-08-04T10:18:27.341Z,27.60
2018-08-04T10:20:54.486Z,27.60
2018-08-04T10:23:21.584Z,27.60
2018-08-04T10:25:48.641Z,28.10
2018-08-04T10:30:43.074Z,28.70
2018-08-04T10:33:11.292Z,28.70
2018-08-04T10:35:38.305Z,28.50
2018-08-04T10:38:05.867Z,28.60
2018-08-04T10:40:32.919Z,28.90
2018-08-04T10:43:00.132Z,29.40
2018-08-04T10:45:27.211Z,29.50
2018-08-04T10:47:54.726Z,29.10
2018-08-04T10:52:49.125Z,28.40
2018-08-04T10:55:16.479Z,28.20
2018-08-04T10:57:43.527Z,28.10
2018-08-04T11:00:11.135Z,28.00
2018-08-04T11:02:38.117Z,28.00
2018-08-04T11:05:05.229Z,27.90
2018-08-04T11:07:32.591Z,28.10
2018-08-04T11:10:00.452Z,28.10
2018-08-04T11:12:27.665Z,28.10
2018-08-04T11:14:54.703Z,28.00
2018-08-04T11:17:22.879Z,28.00
2018-08-04T11:19:49.967Z,27.90
2018-08-04T11:22:16.973Z,27.90
2018-08-04T11:24:44.117Z,27.90
2018-08-04T11:27:11.315Z,27.90
2018-08-04T11:29:38.464Z,27.90
2018-08-04T11:32:05.470Z,27.90
2018-08-04T11:34:32.517Z,27.90
2018-08-04T11:36:59.635Z,27.80
2018-08-04T11:39:26.756Z,27.80
2018-08-04T11:41:53.804Z,27.90
2018-08-04T11:44:21.261Z,27.80
2018-08-04T11:46:48.789Z,27.80
2018-08-04T11:49:15.766Z,27.80
2018-08-04T11:51:42.768Z,27.90
2018-08-04T11:54:09.687Z,27.80
2018-08-04T11:59:18.255Z,27.90
2018-08-04T12:01:49.531Z,27.90
2018-08-04T12:04:16.581Z,27.90
2018-08-04T12:06:43.902Z,27.90
2018-08-04T12:09:10.952Z,27.90
2018-08-04T12:11:37.929Z,27.90
2018-08-04T12:14:09.737Z,27.90
2018-08-04T12:16:37.245Z,27.90
2018-08-04T12:19:04.495Z,27.90
2018-08-04T12:21:31.953Z,27.90
2018-08-04T12:23:59.315Z,28.00
2018-08-04T12:26:26.458Z,28.00
2018-08-04T12:28:53.686Z,28.00
2018-08-04T12:31:20.868Z,27.90
2018-08-04T12:33:48.153Z,27.90
2018-08-04T12:36:15.260Z,27.90
2018-08-04T12:38:42.410Z,27.90
2018-08-04T12:41:09.866Z,27.90
2018-08-04T12:43:37.324Z,27.90
2018-08-04T12:46:04.348Z,27.90
2018-08-04T12:48:31.471Z,27.90
2018-08-04T12:51:00.516Z,27.90
2018-08-04T12:53:27.770Z,27.90
2018-08-04T12:55:54.940Z,27.90
2018-08-04T12:58:22.146Z,27.90
2018-08-04T13:00:49.521Z,27.90
2018-08-04T13:03:25.457Z,27.90
2018-08-04T13:05:52.626Z,27.90
2018-08-04T13:08:20.063Z,27.90
2018-08-04T13:10:48.231Z,27.90
2018-08-04T13:13:15.308Z,27.90
2018-08-04T13:15:42.538Z,27.90
2018-08-04T13:18:09.774Z,27.90
2018-08-04T13:20:36.843Z,27.90
2018-08-04T13:23:07.877Z,27.90
2018-08-04T13:25:34.951Z,27.90
2018-08-04T13:28:02.199Z,27.90
2018-08-04T13:30:29.265Z,27.90
2018-08-04T13:35:23.833Z,27.90
2018-08-04T13:37:51.237Z,27.90
2018-08-04T13:40:20.401Z,28.00
2018-08-04T13:42:47.666Z,27.90
2018-08-04T13:45:15.113Z,27.90
2018-08-04T13:47:42.453Z,27.90
2018-08-04T13:50:10.071Z,27.90
2018-08-04T13:52:39.563Z,27.90
2018-08-04T13:55:07.633Z,27.90
2018-08-04T13:57:37.060Z,28.00
2018-08-04T14:00:04.369Z,28.10
2018-08-04T14:02:31.490Z,28.50
2018-08-04T14:04:59.374Z,28.50
2018-08-04T14:10:01.978Z,28.30
2018-08-04T14:12:29.040Z,28.20
2018-08-04T14:17:28.903Z,28.10
2018-08-04T14:19:55.993Z,28.10
2018-08-04T14:22:23.450Z,28.10
2018-08-04T14:24:50.599Z,28.10
2018-08-04T14:27:24.713Z,28.10
2018-08-04T14:29:51.896Z,28.00
2018-08-04T14:32:21.561Z,28.00
2018-08-04T14:34:51.042Z,28.00
2018-08-04T14:45:26.265Z,28.00
2018-08-04T14:47:54.717Z,28.00
2018-08-04T14:50:21.793Z,28.00
2018-08-04T14:58:09.525Z,28.00
2018-08-04T15:00:43.302Z,28.00
2018-08-04T15:03:10.477Z,28.00
2018-08-04T15:05:37.656Z,28.00
2018-08-04T15:19:37.350Z,28.10
2018-08-04T15:22:04.480Z,28.10
2018-08-04T15:24:31.617Z,28.10
2018-08-04T15:27:02.074Z,28.10
2018-08-04T15:29:30.147Z,28.10
2018-08-04T15:31:57.297Z,28.00
2018-08-04T15:34:24.228Z,28.00
2018-08-04T15:36:57.867Z,28.00
2018-08-04T15:39:39.499Z,28.00
2018-08-04T15:42:06.522Z,28.00
2018-08-04T15:44:33.526Z,28.10
2018-08-04T15:47:02.579Z,28.10
2018-08-04T15:49:29.563Z,28.10
2018-08-04T15:51:57.647Z,28.10
2018-08-04T15:54:28.127Z,28.10
2018-08-04T15:56:55.305Z,28.10
2018-08-04T15:59:22.361Z,28.10
2018-08-04T16:01:52.362Z,28.10
2018-08-04T16:04:19.390Z,28.10
2018-08-04T16:06:46.573Z,28.20
2018-08-04T16:09:13.637Z,28.10
2018-08-04T16:11:40.653Z,28.10
2018-08-04T16:14:07.800Z,28.00
2018-08-04T16:16:34.931Z,28.00
2018-08-04T16:21:29.368Z,28.00
2018-08-04T16:23:56.357Z,28.00
2018-08-04T16:26:23.533Z,28.00
2018-08-04T16:28:50.570Z,28.00
2018-08-04T16:31:17.528Z,28.00
2018-08-04T16:33:44.604Z,28.00
2018-08-04T16:36:11.741Z,28.00
2018-08-04T16:38:40.413Z,28.00
2018-08-04T16:41:07.530Z,28.00
2018-08-04T16:43:34.534Z,27.90
2018-08-04T16:46:01.535Z,28.00
2018-08-04T16:48:28.630Z,28.00
2018-08-04T16:50:55.572Z,27.90
2018-08-04T16:53:22.520Z,28.00
2018-08-04T16:55:49.464Z,27.90
2018-08-04T16:58:16.576Z,27.90
2018-08-04T17:00:43.617Z,28.00
2018-08-04T17:03:10.570Z,28.00
2018-08-04T17:08:22.075Z,27.90
2018-08-04T17:10:49.054Z,27.90
2018-08-04T17:13:16.437Z,28.00
2018-08-04T17:15:43.310Z,28.00
2018-08-04T17:18:10.477Z,28.00
2018-08-04T17:20:37.347Z,28.00
2018-08-04T17:23:04.247Z,28.00
2018-08-04T17:25:31.232Z,28.00
2018-08-04T17:27:58.406Z,28.00
2018-08-04T17:30:25.340Z,28.00
2018-08-04T17:32:52.305Z,28.00
2018-08-04T17:35:19.320Z,28.00
2018-08-04T17:37:46.297Z,28.00
2018-08-04T17:40:13.209Z,28.00
2018-08-04T17:42:40.155Z,28.00
2018-08-04T17:45:07.099Z,28.10
2018-08-04T17:47:34.351Z,28.10
2018-08-04T17:50:01.296Z,28.10
2018-08-04T17:52:28.445Z,28.00
2018-08-04T17:54:55.389Z,28.00
2018-08-04T17:57:22.596Z,28.00
2018-08-04T17:59:49.446Z,28.00
2018-08-04T18:02:16.366Z,28.00
2018-08-04T18:04:43.373Z,27.90
2018-08-04T18:07:10.423Z,28.00
2018-08-04T18:09:37.327Z,27.90
2018-08-04T18:12:04.311Z,28.00
2018-08-04T18:14:31.123Z,28.00
2018-08-04T18:16:58.136Z,28.00
2018-08-04T18:19:24.973Z,28.00
2018-08-04T18:21:52.018Z,28.00
2018-08-04T18:24:18.886Z,28.00
2018-08-04T18:26:45.894Z,27.90
2018-08-04T18:29:12.732Z,27.90
2018-08-04T18:31:39.570Z,28.00
2018-08-04T18:34:06.403Z,28.00
2018-08-04T18:36:33.278Z,28.00
2018-08-04T18:39:00.130Z,28.00
2018-08-04T18:46:21.291Z,28.00
2018-08-04T18:48:48.183Z,27.90
2018-08-04T18:51:15.020Z,28.00
2018-08-04T18:53:41.880Z,28.00
2018-08-04T19:03:40.678Z,28.00
2018-08-04T19:06:07.713Z,28.00
2018-08-04T19:08:34.690Z,28.00
2018-08-04T19:11:01.579Z,28.00
2018-08-04T19:13:28.633Z,28.10
2018-08-04T19:15:55.687Z,28.10
2018-08-04T19:18:22.573Z,28.10
2018-08-04T19:20:49.392Z,28.10
2018-08-04T19:23:16.251Z,28.10
2018-08-04T19:25:44.468Z,28.10
2018-08-04T19:28:11.680Z,28.10
2018-08-04T19:30:38.628Z,28.00
2018-08-04T19:33:05.628Z,28.00
2018-08-04T19:35:32.522Z,28.00
2018-08-04T19:37:59.709Z,28.10
2018-08-04T19:40:26.756Z,28.10
2018-08-04T19:42:53.754Z,28.10
2018-08-04T19:45:20.764Z,28.10
2018-08-04T19:50:15.070Z,28.10
2018-08-04T19:55:09.160Z,28.20
2018-08-04T19:57:36.182Z,28.20
2018-08-04T20:00:03.142Z,28.20
2018-08-04T20:02:30.756Z,28.20
2018-08-04T20:04:57.635Z,28.20
2018-08-04T20:07:24.784Z,28.20
2018-08-04T20:09:51.754Z,28.20
2018-08-04T20:12:18.705Z,28.20
2018-08-04T20:14:45.616Z,28.20
2018-08-04T20:17:12.732Z,28.20
2018-08-04T20:22:18.394Z,28.20
2018-08-04T20:24:45.501Z,28.20
2018-08-04T20:27:12.859Z,28.20
2018-08-04T20:29:40.932Z,28.20
2018-08-04T20:32:07.878Z,28.20
2018-08-04T20:34:34.825Z,28.20
2018-08-04T20:37:01.908Z,28.20
2018-08-04T20:39:28.812Z,28.20
2018-08-04T20:47:01.364Z,28.20
2018-08-04T20:49:28.509Z,28.30
2018-08-04T20:51:55.494Z,28.20
2018-08-04T20:54:22.678Z,28.20
2018-08-04T20:59:18.409Z,28.20
2018-08-04T21:01:53.375Z,28.30
2018-08-04T21:04:20.389Z,28.30
2018-08-04T21:06:47.600Z,28.30
2018-08-04T21:09:14.574Z,28.30
2018-08-04T21:11:41.560Z,28.20
2018-08-04T21:14:08.589Z,28.20
2018-08-04T21:16:35.936Z,28.30
2018-08-04T21:19:03.043Z,28.30
2018-08-04T21:21:30.057Z,28.30
2018-08-04T21:23:57.079Z,28.30
2018-08-04T21:26:24.117Z,28.30
2018-08-04T21:28:51.142Z,28.00
2018-08-04T21:31:18.097Z,27.60
2018-08-04T21:33:45.051Z,27.40
2018-08-04T21:36:11.999Z,27.20
2018-08-04T21:38:38.837Z,27.10
2018-08-04T21:41:06.683Z,27.00
2018-08-04T21:43:33.570Z,27.10
2018-08-04T21:46:00.460Z,27.50
2018-08-04T21:48:27.450Z,27.70
2018-08-04T21:50:54.342Z,27.80
2018-08-04T21:53:21.344Z,27.90
2018-08-04T21:55:48.328Z,27.90
2018-08-04T21:58:15.408Z,27.90
2018-08-04T22:00:42.686Z,28.00
2018-08-04T22:03:09.755Z,28.00
2018-08-04T22:05:36.701Z,28.00
2018-08-04T22:10:31.114Z,28.00
2018-08-04T22:12:58.048Z,28.00
2018-08-04T22:15:25.028Z,28.00
2018-08-04T22:17:52.089Z,28.00
2018-08-04T22:20:18.984Z,28.00
2018-08-04T22:22:45.954Z,28.00
2018-08-04T22:25:13.080Z,28.00
2018-08-04T22:27:41.094Z,28.00
2018-08-04T22:30:08.402Z,28.00
2018-08-04T22:32:35.345Z,28.00
2018-08-04T22:35:02.463Z,28.00
2018-08-04T22:40:06.789Z,28.00
2018-08-04T22:42:33.970Z,28.00
2018-08-04T22:45:01.035Z,28.00
2018-08-04T22:47:28.171Z,28.00
2018-08-04T22:49:55.114Z,28.00
2018-08-04T22:52:22.169Z,28.00
2018-08-04T22:54:49.212Z,28.00
2018-08-04T22:57:16.417Z,28.00
2018-08-04T22:59:43.518Z,28.00
2018-08-04T23:02:11.174Z,28.00
2018-08-04T23:04:38.010Z,28.00
2018-08-04T23:07:05.167Z,28.00
2018-08-04T23:09:32.075Z,28.00
2018-08-04T23:11:59.002Z,28.00
2018-08-04T23:14:25.854Z,28.00
2018-08-04T23:16:52.945Z,28.00
2018-08-04T23:19:19.903Z,28.00
2018-08-04T23:21:46.992Z,28.00
2018-08-04T23:24:14.077Z,27.90
2018-08-04T23:26:41.343Z,28.00
2018-08-04T23:29:08.389Z,27.90
2018-08-04T23:31:35.486Z,27.90
2018-08-04T23:34:02.448Z,27.90
2018-08-04T23:36:29.590Z,27.90
2018-08-04T23:38:56.505Z,27.90
2018-08-04T23:41:23.438Z,27.90
2018-08-04T23:43:50.500Z,27.90
2018-08-04T23:46:17.375Z,27.90
2018-08-04T23:48:44.237Z,27.90
2018-08-04T23:51:11.301Z,27.90
2018-08-04T23:53:38.219Z,27.90
2018-08-04T23:56:05.154Z,27.90
2018-08-04T23:58:32.238Z,27.90
